Terminal Aerodrome Forecast
Issued by NWS

Home | Current Version | Previous Version | Text Only | Print | Product List | Glossary On
Versions: 1 2 3 4 5 6 7 8 9 10 11 12 13 14 15 16 17 18 19 20 21 22 23 24
000
FTUS41 KBUF 232106 AAA
TAFIAG
TAF AMD
KIAG 232106Z 2321/2418 13010KT P6SM VCSH SCT040 BKN110
     FM240100 15016G32KT 6SM -RA OVC050
     FM240600 19016G32KT P6SM OVC035
     FM241200 22014G28KT P6SM SCT050=

USA.gov is the U.S. government's official web portal to all federal, state and local government web resources and services.